バンダルスリブガワン の空港の天気 - METARとTAF

ブルネイ国際空港 ( WBSB / BWN ) - ブルネイ バンダルスリブガワン
飛行場実況気象(Metar)
観測時間03/29 05:00 +08 (03/28 21:00 UTC)
風向・風速南南西 3m/s
視程10km以上
天気現象
少しの雲 雲底高度 90m
少しの雲 雲底高度 460m
全天の4割程度の雲 雲底高度 4270m
全天の8割程度の雲 雲底高度 8230m
気温25℃
湿度94%
気圧1010hPa
METARWBSB 282100Z 20005KT 9999 FEW003 FEW015CB SCT140 BKN270 25/24 Q1010 NOSIG
過去の天気等 Google飛行場航空写真 Wunderground天気予報

過去48時間のMETAR

飛行場予報(TAF)
発表時間: 3/29 00:50 +08 (3/28 16:50 UTC)
予報対象時間: 29日2時 +08 ~ 30日8時 +08
風向・風速南南西 2m/s
視程10km以上
少しの雲 雲底高度 120m
少しの積乱雲 雲底高度 490m
29日4時 +08 ~ 29日6時 +08 に一時的に
視程7,000m
天気現象しゅう雨 雷雨
29日11時 +08 ~ 29日13時 +08 に徐々に
風向・風速北北西 5m/s
全天の4割程度の雲 雲底高度 490m
少しの積乱雲 雲底高度 520m
TAF WBSB 281650Z 2818/3000 20003KT 9999 FEW004 FEW016CB
TEMPO 2820/2822 7000 SHRA TSRA
BECMG 2903/2905 33010KT SCT016 FEW017CB